sensor_id;sensor_type;location;lat;lon;timestamp;P1;durP1;ratioP1;P2;durP2;ratioP2
21087;SDS011;10702;51.516;9.944;2022-12-18T00:02:01;26.37;;;10.33;;
21087;SDS011;10702;51.516;9.944;2022-12-18T00:04:31;25.13;;;11.57;;
21087;SDS011;10702;51.516;9.944;2022-12-18T00:06:58;29.77;;;12.33;;
21087;SDS011;10702;51.516;9.944;2022-12-18T00:09:26;28.10;;;10.43;;
21087;SDS011;10702;51.516;9.944;2022-12-18T00:12:05;23.77;;;9.80;;
21087;SDS011;10702;51.516;9.944;2022-12-18T00:14:42;24.30;;;9.73;;
21087;SDS011;10702;51.516;9.944;2022-12-18T00:17:09;25.90;;;10.53;;
21087;SDS011;10702;51.516;9.944;2022-12-18T00:19:37;25.63;;;10.37;;
21087;SDS011;10702;51.516;9.944;2022-12-18T00:22:04;19.43;;;8.87;;
21087;SDS011;10702;51.516;9.944;2022-12-18T00:24:32;20.90;;;9.50;;
21087;SDS011;10702;51.516;9.944;2022-12-18T00:27:00;18.70;;;9.07;;
21087;SDS011;10702;51.516;9.944;2022-12-18T00:29:27;23.63;;;9.70;;
21087;SDS011;10702;51.516;9.944;2022-12-18T00:31:56;24.80;;;10.17;;
21087;SDS011;10702;51.516;9.944;2022-12-18T00:34:23;20.57;;;9.73;;
21087;SDS011;10702;51.516;9.944;2022-12-18T00:36:51;20.63;;;9.23;;
21087;SDS011;10702;51.516;9.944;2022-12-18T00:39:19;23.03;;;10.63;;
21087;SDS011;10702;51.516;9.944;2022-12-18T00:41:47;19.73;;;9.03;;
21087;SDS011;10702;51.516;9.944;2022-12-18T00:44:31;16.87;;;8.30;;
21087;SDS011;10702;51.516;9.944;2022-12-18T00:47:00;23.13;;;9.47;;
21087;SDS011;10702;51.516;9.944;2022-12-18T00:49:28;22.63;;;8.87;;
21087;SDS011;10702;51.516;9.944;2022-12-18T00:51:55;22.77;;;9.30;;
21087;SDS011;10702;51.516;9.944;2022-12-18T00:54:23;21.90;;;9.03;;
21087;SDS011;10702;51.516;9.944;2022-12-18T00:56:51;20.93;;;8.37;;
21087;SDS011;10702;51.516;9.944;2022-12-18T00:59:19;20.77;;;8.73;;
21087;SDS011;10702;51.516;9.944;2022-12-18T01:01:46;18.90;;;8.80;;
21087;SDS011;10702;51.516;9.944;2022-12-18T01:04:16;20.80;;;8.50;;
21087;SDS011;10702;51.516;9.944;2022-12-18T01:06:44;19.93;;;8.47;;
21087;SDS011;10702;51.516;9.944;2022-12-18T01:09:12;21.83;;;9.73;;
21087;SDS011;10702;51.516;9.944;2022-12-18T01:11:39;21.03;;;8.87;;
21087;SDS011;10702;51.516;9.944;2022-12-18T01:14:07;35.57;;;13.07;;
21087;SDS011;10702;51.516;9.944;2022-12-18T01:16:34;31.00;;;13.37;;
21087;SDS011;10702;51.516;9.944;2022-12-18T01:19:03;26.30;;;10.70;;
21087;SDS011;10702;51.516;9.944;2022-12-18T01:21:32;23.53;;;10.20;;
21087;SDS011;10702;51.516;9.944;2022-12-18T01:23:59;22.83;;;9.33;;
21087;SDS011;10702;51.516;9.944;2022-12-18T01:26:27;27.90;;;10.83;;
21087;SDS011;10702;51.516;9.944;2022-12-18T01:28:56;29.13;;;10.93;;
21087;SDS011;10702;51.516;9.944;2022-12-18T01:31:25;23.57;;;11.00;;
21087;SDS011;10702;51.516;9.944;2022-12-18T01:33:53;25.40;;;10.97;;
21087;SDS011;10702;51.516;9.944;2022-12-18T01:36:21;28.20;;;11.30;;
21087;SDS011;10702;51.516;9.944;2022-12-18T01:38:50;25.57;;;9.83;;
21087;SDS011;10702;51.516;9.944;2022-12-18T01:41:22;32.60;;;12.20;;
21087;SDS011;10702;51.516;9.944;2022-12-18T01:43:51;32.07;;;11.83;;
21087;SDS011;10702;51.516;9.944;2022-12-18T01:46:20;22.63;;;9.90;;
21087;SDS011;10702;51.516;9.944;2022-12-18T01:48:48;27.43;;;10.33;;
21087;SDS011;10702;51.516;9.944;2022-12-18T01:51:17;22.93;;;9.23;;
21087;SDS011;10702;51.516;9.944;2022-12-18T01:53:45;24.27;;;9.77;;
21087;SDS011;10702;51.516;9.944;2022-12-18T01:56:16;25.93;;;9.90;;
21087;SDS011;10702;51.516;9.944;2022-12-18T01:58:52;25.93;;;10.23;;
21087;SDS011;10702;51.516;9.944;2022-12-18T02:01:21;28.17;;;10.17;;
21087;SDS011;10702;51.516;9.944;2022-12-18T02:03:49;24.33;;;10.60;;
21087;SDS011;10702;51.516;9.944;2022-12-18T02:06:19;26.07;;;10.10;;
21087;SDS011;10702;51.516;9.944;2022-12-18T02:08:50;17.43;;;8.80;;
21087;SDS011;10702;51.516;9.944;2022-12-18T02:11:24;21.90;;;8.73;;
21087;SDS011;10702;51.516;9.944;2022-12-18T02:13:56;26.43;;;10.37;;
21087;SDS011;10702;51.516;9.944;2022-12-18T02:16:29;19.83;;;8.10;;
21087;SDS011;10702;51.516;9.944;2022-12-18T02:19:01;17.43;;;8.43;;
21087;SDS011;10702;51.516;9.944;2022-12-18T02:21:34;16.87;;;7.90;;
21087;SDS011;10702;51.516;9.944;2022-12-18T02:24:08;24.27;;;9.83;;
21087;SDS011;10702;51.516;9.944;2022-12-18T02:26:42;22.43;;;9.43;;
21087;SDS011;10702;51.516;9.944;2022-12-18T02:29:12;22.27;;;9.00;;
21087;SDS011;10702;51.516;9.944;2022-12-18T02:31:42;28.90;;;9.73;;
21087;SDS011;10702;51.516;9.944;2022-12-18T02:34:10;25.37;;;10.07;;
21087;SDS011;10702;51.516;9.944;2022-12-18T02:36:39;22.80;;;8.20;;
21087;SDS011;10702;51.516;9.944;2022-12-18T02:39:09;21.77;;;9.33;;
21087;SDS011;10702;51.516;9.944;2022-12-18T02:41:37;18.30;;;7.80;;
21087;SDS011;10702;51.516;9.944;2022-12-18T02:44:08;20.83;;;8.63;;
21087;SDS011;10702;51.516;9.944;2022-12-18T02:46:37;18.57;;;8.27;;
21087;SDS011;10702;51.516;9.944;2022-12-18T02:49:06;22.20;;;8.50;;
21087;SDS011;10702;51.516;9.944;2022-12-18T02:51:39;23.40;;;10.17;;
21087;SDS011;10702;51.516;9.944;2022-12-18T02:54:13;22.10;;;8.50;;
21087;SDS011;10702;51.516;9.944;2022-12-18T02:56:45;18.90;;;8.23;;
21087;SDS011;10702;51.516;9.944;2022-12-18T02:59:17;25.87;;;8.80;;
21087;SDS011;10702;51.516;9.944;2022-12-18T03:01:49;24.47;;;9.00;;
21087;SDS011;10702;51.516;9.944;2022-12-18T03:04:20;20.17;;;8.33;;
21087;SDS011;10702;51.516;9.944;2022-12-18T03:06:50;17.10;;;7.70;;
21087;SDS011;10702;51.516;9.944;2022-12-18T03:09:21;22.00;;;8.43;;
21087;SDS011;10702;51.516;9.944;2022-12-18T03:11:51;21.10;;;8.37;;
21087;SDS011;10702;51.516;9.944;2022-12-18T03:14:39;18.73;;;8.10;;
21087;SDS011;10702;51.516;9.944;2022-12-18T03:17:09;19.07;;;8.53;;
21087;SDS011;10702;51.516;9.944;2022-12-18T03:19:37;20.63;;;8.80;;
21087;SDS011;10702;51.516;9.944;2022-12-18T03:22:06;17.20;;;6.97;;
21087;SDS011;10702;51.516;9.944;2022-12-18T03:24:34;17.33;;;7.60;;
21087;SDS011;10702;51.516;9.944;2022-12-18T03:27:06;21.50;;;8.27;;
21087;SDS011;10702;51.516;9.944;2022-12-18T03:29:37;24.27;;;8.67;;
21087;SDS011;10702;51.516;9.944;2022-12-18T03:32:07;18.27;;;7.23;;
21087;SDS011;10702;51.516;9.944;2022-12-18T03:34:37;21.80;;;8.40;;
21087;SDS011;10702;51.516;9.944;2022-12-18T03:37:05;18.57;;;7.67;;
21087;SDS011;10702;51.516;9.944;2022-12-18T03:39:33;16.87;;;7.40;;
21087;SDS011;10702;51.516;9.944;2022-12-18T03:42:01;21.10;;;8.00;;
21087;SDS011;10702;51.516;9.944;2022-12-18T03:44:32;18.63;;;7.40;;
21087;SDS011;10702;51.516;9.944;2022-12-18T03:47:04;19.23;;;7.57;;
21087;SDS011;10702;51.516;9.944;2022-12-18T03:49:35;21.37;;;7.97;;
21087;SDS011;10702;51.516;9.944;2022-12-18T03:52:04;17.93;;;7.90;;
21087;SDS011;10702;51.516;9.944;2022-12-18T03:54:33;16.50;;;6.60;;
21087;SDS011;10702;51.516;9.944;2022-12-18T03:57:03;14.90;;;6.20;;
21087;SDS011;10702;51.516;9.944;2022-12-18T03:59:32;16.07;;;6.97;;
21087;SDS011;10702;51.516;9.944;2022-12-18T04:02:00;18.50;;;7.60;;
21087;SDS011;10702;51.516;9.944;2022-12-18T04:04:29;16.83;;;7.60;;
21087;SDS011;10702;51.516;9.944;2022-12-18T04:06:59;17.67;;;7.00;;
21087;SDS011;10702;51.516;9.944;2022-12-18T04:09:27;19.57;;;7.63;;
21087;SDS011;10702;51.516;9.944;2022-12-18T04:11:55;16.97;;;7.37;;
21087;SDS011;10702;51.516;9.944;2022-12-18T04:14:23;18.87;;;7.50;;
21087;SDS011;10702;51.516;9.944;2022-12-18T04:16:50;14.27;;;6.23;;
21087;SDS011;10702;51.516;9.944;2022-12-18T04:19:18;18.00;;;7.87;;
21087;SDS011;10702;51.516;9.944;2022-12-18T04:21:45;21.83;;;7.43;;
21087;SDS011;10702;51.516;9.944;2022-12-18T04:24:14;15.20;;;7.07;;
21087;SDS011;10702;51.516;9.944;2022-12-18T04:26:41;14.70;;;6.90;;
21087;SDS011;10702;51.516;9.944;2022-12-18T04:29:09;14.60;;;6.87;;
21087;SDS011;10702;51.516;9.944;2022-12-18T04:31:37;14.43;;;6.97;;
21087;SDS011;10702;51.516;9.944;2022-12-18T04:34:04;16.90;;;7.10;;
21087;SDS011;10702;51.516;9.944;2022-12-18T04:36:32;13.97;;;6.40;;
21087;SDS011;10702;51.516;9.944;2022-12-18T04:38:59;13.90;;;6.03;;
21087;SDS011;10702;51.516;9.944;2022-12-18T04:41:28;15.27;;;6.60;;
21087;SDS011;10702;51.516;9.944;2022-12-18T04:43:56;14.63;;;6.23;;
21087;SDS011;10702;51.516;9.944;2022-12-18T04:46:23;16.73;;;6.73;;
21087;SDS011;10702;51.516;9.944;2022-12-18T04:48:51;19.97;;;7.00;;
21087;SDS011;10702;51.516;9.944;2022-12-18T04:51:18;16.90;;;6.33;;
21087;SDS011;10702;51.516;9.944;2022-12-18T04:53:52;15.20;;;6.90;;
21087;SDS011;10702;51.516;9.944;2022-12-18T04:56:19;17.10;;;7.30;;
21087;SDS011;10702;51.516;9.944;2022-12-18T04:58:48;16.80;;;6.67;;
21087;SDS011;10702;51.516;9.944;2022-12-18T05:01:17;14.40;;;6.07;;
21087;SDS011;10702;51.516;9.944;2022-12-18T05:03:45;14.13;;;6.27;;
21087;SDS011;10702;51.516;9.944;2022-12-18T05:06:12;11.47;;;5.80;;
21087;SDS011;10702;51.516;9.944;2022-12-18T05:08:40;13.63;;;6.40;;
21087;SDS011;10702;51.516;9.944;2022-12-18T05:11:09;15.37;;;5.93;;
21087;SDS011;10702;51.516;9.944;2022-12-18T05:13:37;18.07;;;6.40;;
21087;SDS011;10702;51.516;9.944;2022-12-18T05:16:07;13.73;;;6.03;;
21087;SDS011;10702;51.516;9.944;2022-12-18T05:18:35;13.40;;;6.43;;
21087;SDS011;10702;51.516;9.944;2022-12-18T05:21:03;14.60;;;6.03;;
21087;SDS011;10702;51.516;9.944;2022-12-18T05:23:31;18.80;;;7.23;;
21087;SDS011;10702;51.516;9.944;2022-12-18T05:26:00;16.90;;;6.73;;
21087;SDS011;10702;51.516;9.944;2022-12-18T05:28:29;11.50;;;5.83;;
21087;SDS011;10702;51.516;9.944;2022-12-18T05:30:57;12.23;;;5.43;;
21087;SDS011;10702;51.516;9.944;2022-12-18T05:33:28;13.70;;;5.50;;
21087;SDS011;10702;51.516;9.944;2022-12-18T05:35:57;12.60;;;5.60;;
21087;SDS011;10702;51.516;9.944;2022-12-18T05:38:25;13.73;;;5.90;;
21087;SDS011;10702;51.516;9.944;2022-12-18T05:40:53;18.27;;;5.67;;
21087;SDS011;10702;51.516;9.944;2022-12-18T05:43:21;17.70;;;6.80;;
21087;SDS011;10702;51.516;9.944;2022-12-18T05:45:49;13.20;;;5.83;;
21087;SDS011;10702;51.516;9.944;2022-12-18T05:48:17;16.93;;;11.30;;
21087;SDS011;10702;51.516;9.944;2022-12-18T05:50:47;15.03;;;6.53;;
21087;SDS011;10702;51.516;9.944;2022-12-18T05:53:16;11.23;;;5.50;;
21087;SDS011;10702;51.516;9.944;2022-12-18T05:55:44;13.83;;;6.10;;
21087;SDS011;10702;51.516;9.944;2022-12-18T05:58:12;11.67;;;5.40;;
21087;SDS011;10702;51.516;9.944;2022-12-18T06:00:40;13.50;;;5.33;;
21087;SDS011;10702;51.516;9.944;2022-12-18T06:03:08;15.60;;;6.17;;
21087;SDS011;10702;51.516;9.944;2022-12-18T06:05:36;11.27;;;4.97;;
21087;SDS011;10702;51.516;9.944;2022-12-18T06:08:06;13.87;;;5.73;;
21087;SDS011;10702;51.516;9.944;2022-12-18T06:10:33;11.90;;;5.67;;
21087;SDS011;10702;51.516;9.944;2022-12-18T06:13:01;14.07;;;5.63;;
21087;SDS011;10702;51.516;9.944;2022-12-18T06:15:29;14.53;;;5.73;;
21087;SDS011;10702;51.516;9.944;2022-12-18T06:17:56;11.73;;;4.80;;
21087;SDS011;10702;51.516;9.944;2022-12-18T06:20:24;15.57;;;5.50;;
21087;SDS011;10702;51.516;9.944;2022-12-18T06:22:58;14.40;;;6.83;;
21087;SDS011;10702;51.516;9.944;2022-12-18T06:25:27;15.60;;;5.77;;
21087;SDS011;10702;51.516;9.944;2022-12-18T06:27:55;15.77;;;6.17;;
21087;SDS011;10702;51.516;9.944;2022-12-18T06:30:22;12.23;;;5.63;;
21087;SDS011;10702;51.516;9.944;2022-12-18T06:32:50;12.83;;;5.37;;
21087;SDS011;10702;51.516;9.944;2022-12-18T06:35:22;19.67;;;7.97;;
21087;SDS011;10702;51.516;9.944;2022-12-18T06:37:49;18.03;;;8.10;;
21087;SDS011;10702;51.516;9.944;2022-12-18T06:40:17;18.07;;;7.20;;
21087;SDS011;10702;51.516;9.944;2022-12-18T06:42:46;14.50;;;6.27;;
21087;SDS011;10702;51.516;9.944;2022-12-18T06:45:15;12.57;;;5.83;;
21087;SDS011;10702;51.516;9.944;2022-12-18T06:47:43;15.00;;;6.20;;
21087;SDS011;10702;51.516;9.944;2022-12-18T06:50:11;13.07;;;6.03;;
21087;SDS011;10702;51.516;9.944;2022-12-18T06:52:39;11.33;;;6.00;;
21087;SDS011;10702;51.516;9.944;2022-12-18T06:55:07;13.30;;;5.87;;
21087;SDS011;10702;51.516;9.944;2022-12-18T06:57:36;15.03;;;6.57;;
21087;SDS011;10702;51.516;9.944;2022-12-18T07:00:06;16.80;;;6.23;;
21087;SDS011;10702;51.516;9.944;2022-12-18T07:02:34;13.13;;;5.57;;
21087;SDS011;10702;51.516;9.944;2022-12-18T07:05:02;10.47;;;5.50;;
21087;SDS011;10702;51.516;9.944;2022-12-18T07:07:35;13.53;;;6.00;;
21087;SDS011;10702;51.516;9.944;2022-12-18T07:10:03;15.60;;;5.60;;
21087;SDS011;10702;51.516;9.944;2022-12-18T07:12:32;10.00;;;5.13;;
21087;SDS011;10702;51.516;9.944;2022-12-18T07:14:59;12.87;;;5.27;;
21087;SDS011;10702;51.516;9.944;2022-12-18T07:17:28;10.93;;;5.03;;
21087;SDS011;10702;51.516;9.944;2022-12-18T07:19:56;11.70;;;5.27;;
21087;SDS011;10702;51.516;9.944;2022-12-18T07:22:24;13.70;;;6.60;;
21087;SDS011;10702;51.516;9.944;2022-12-18T07:24:52;13.17;;;5.17;;
21087;SDS011;10702;51.516;9.944;2022-12-18T07:27:19;13.47;;;5.83;;
21087;SDS011;10702;51.516;9.944;2022-12-18T07:29:48;14.87;;;5.77;;
21087;SDS011;10702;51.516;9.944;2022-12-18T07:32:15;11.37;;;4.87;;
21087;SDS011;10702;51.516;9.944;2022-12-18T07:34:44;11.97;;;4.73;;
21087;SDS011;10702;51.516;9.944;2022-12-18T07:37:12;12.80;;;5.53;;
21087;SDS011;10702;51.516;9.944;2022-12-18T07:39:41;13.47;;;5.00;;
21087;SDS011;10702;51.516;9.944;2022-12-18T07:42:08;8.43;;;4.40;;
21087;SDS011;10702;51.516;9.944;2022-12-18T07:44:53;11.40;;;5.50;;
21087;SDS011;10702;51.516;9.944;2022-12-18T07:47:21;11.03;;;5.33;;
21087;SDS011;10702;51.516;9.944;2022-12-18T07:49:50;13.17;;;5.63;;
21087;SDS011;10702;51.516;9.944;2022-12-18T07:52:18;9.70;;;4.27;;
21087;SDS011;10702;51.516;9.944;2022-12-18T07:54:51;13.87;;;5.30;;
21087;SDS011;10702;51.516;9.944;2022-12-18T07:57:18;14.90;;;6.40;;
21087;SDS011;10702;51.516;9.944;2022-12-18T08:00:06;13.53;;;5.73;;
21087;SDS011;10702;51.516;9.944;2022-12-18T08:02:34;13.53;;;5.83;;
21087;SDS011;10702;51.516;9.944;2022-12-18T08:05:04;27.20;;;8.17;;
21087;SDS011;10702;51.516;9.944;2022-12-18T08:07:33;20.07;;;7.80;;
21087;SDS011;10702;51.516;9.944;2022-12-18T08:10:00;19.57;;;7.17;;
21087;SDS011;10702;51.516;9.944;2022-12-18T08:12:29;28.83;;;8.17;;
21087;SDS011;10702;51.516;9.944;2022-12-18T08:14:56;17.33;;;6.67;;
21087;SDS011;10702;51.516;9.944;2022-12-18T08:17:24;20.67;;;7.57;;
21087;SDS011;10702;51.516;9.944;2022-12-18T08:19:52;18.60;;;6.80;;
21087;SDS011;10702;51.516;9.944;2022-12-18T08:22:20;14.43;;;5.43;;
21087;SDS011;10702;51.516;9.944;2022-12-18T08:24:48;15.90;;;6.63;;
21087;SDS011;10702;51.516;9.944;2022-12-18T08:27:16;14.60;;;6.17;;
21087;SDS011;10702;51.516;9.944;2022-12-18T08:29:55;14.80;;;7.40;;
21087;SDS011;10702;51.516;9.944;2022-12-18T08:32:22;18.10;;;6.40;;
21087;SDS011;10702;51.516;9.944;2022-12-18T08:34:50;17.07;;;7.33;;
21087;SDS011;10702;51.516;9.944;2022-12-18T08:37:17;15.27;;;6.90;;
21087;SDS011;10702;51.516;9.944;2022-12-18T08:39:47;14.53;;;6.50;;
21087;SDS011;10702;51.516;9.944;2022-12-18T08:42:14;14.77;;;6.27;;
21087;SDS011;10702;51.516;9.944;2022-12-18T08:44:59;18.13;;;7.53;;
21087;SDS011;10702;51.516;9.944;2022-12-18T08:47:27;17.97;;;8.23;;
21087;SDS011;10702;51.516;9.944;2022-12-18T08:49:54;24.90;;;8.37;;
21087;SDS011;10702;51.516;9.944;2022-12-18T08:52:22;20.83;;;8.40;;
21087;SDS011;10702;51.516;9.944;2022-12-18T08:54:54;15.77;;;6.20;;
21087;SDS011;10702;51.516;9.944;2022-12-18T08:57:21;15.70;;;6.83;;
21087;SDS011;10702;51.516;9.944;2022-12-18T08:59:49;16.93;;;7.20;;
21087;SDS011;10702;51.516;9.944;2022-12-18T09:02:16;11.43;;;6.30;;
21087;SDS011;10702;51.516;9.944;2022-12-18T09:04:46;14.90;;;6.20;;
21087;SDS011;10702;51.516;9.944;2022-12-18T09:07:20;17.67;;;6.57;;
21087;SDS011;10702;51.516;9.944;2022-12-18T09:09:48;56.33;;;35.43;;
21087;SDS011;10702;51.516;9.944;2022-12-18T09:12:17;15.30;;;6.37;;
21087;SDS011;10702;51.516;9.944;2022-12-18T09:14:44;13.30;;;6.17;;
21087;SDS011;10702;51.516;9.944;2022-12-18T09:17:12;32.90;;;25.00;;
21087;SDS011;10702;51.516;9.944;2022-12-18T09:19:39;24.67;;;9.93;;
21087;SDS011;10702;51.516;9.944;2022-12-18T09:22:07;18.77;;;8.47;;
21087;SDS011;10702;51.516;9.944;2022-12-18T09:24:35;16.13;;;7.20;;
21087;SDS011;10702;51.516;9.944;2022-12-18T09:27:03;19.77;;;8.63;;
21087;SDS011;10702;51.516;9.944;2022-12-18T09:29:32;22.63;;;8.50;;
21087;SDS011;10702;51.516;9.944;2022-12-18T09:32:00;18.03;;;7.70;;
21087;SDS011;10702;51.516;9.944;2022-12-18T09:34:27;19.53;;;8.40;;
21087;SDS011;10702;51.516;9.944;2022-12-18T09:36:54;18.93;;;9.87;;
21087;SDS011;10702;51.516;9.944;2022-12-18T09:39:22;14.30;;;6.97;;
21087;SDS011;10702;51.516;9.944;2022-12-18T09:41:51;20.80;;;8.03;;
21087;SDS011;10702;51.516;9.944;2022-12-18T09:44:21;15.20;;;7.77;;
21087;SDS011;10702;51.516;9.944;2022-12-18T09:46:52;15.63;;;7.30;;
21087;SDS011;10702;51.516;9.944;2022-12-18T09:49:21;16.70;;;8.10;;
21087;SDS011;10702;51.516;9.944;2022-12-18T09:51:50;18.10;;;8.70;;
21087;SDS011;10702;51.516;9.944;2022-12-18T09:54:20;17.50;;;8.13;;
21087;SDS011;10702;51.516;9.944;2022-12-18T09:56:48;16.43;;;7.47;;
21087;SDS011;10702;51.516;9.944;2022-12-18T09:59:18;19.27;;;8.87;;
21087;SDS011;10702;51.516;9.944;2022-12-18T10:01:48;21.53;;;9.40;;
21087;SDS011;10702;51.516;9.944;2022-12-18T10:04:17;24.07;;;11.07;;
21087;SDS011;10702;51.516;9.944;2022-12-18T10:06:46;28.97;;;12.03;;
21087;SDS011;10702;51.516;9.944;2022-12-18T10:09:16;33.03;;;14.33;;
21087;SDS011;10702;51.516;9.944;2022-12-18T10:11:47;33.63;;;15.50;;
21087;SDS011;10702;51.516;9.944;2022-12-18T10:14:17;33.90;;;15.07;;
21087;SDS011;10702;51.516;9.944;2022-12-18T10:16:51;40.67;;;22.13;;
21087;SDS011;10702;51.516;9.944;2022-12-18T10:19:25;26.33;;;12.57;;
21087;SDS011;10702;51.516;9.944;2022-12-18T10:21:57;29.33;;;13.43;;
21087;SDS011;10702;51.516;9.944;2022-12-18T10:24:31;31.60;;;13.83;;
21087;SDS011;10702;51.516;9.944;2022-12-18T10:27:06;34.97;;;14.70;;
21087;SDS011;10702;51.516;9.944;2022-12-18T10:29:36;50.27;;;23.57;;
21087;SDS011;10702;51.516;9.944;2022-12-18T10:32:04;54.90;;;24.50;;
21087;SDS011;10702;51.516;9.944;2022-12-18T10:34:33;46.07;;;20.73;;
21087;SDS011;10702;51.516;9.944;2022-12-18T10:37:03;39.73;;;19.03;;
21087;SDS011;10702;51.516;9.944;2022-12-18T10:39:33;33.50;;;13.77;;
21087;SDS011;10702;51.516;9.944;2022-12-18T10:42:09;49.37;;;17.80;;
21087;SDS011;10702;51.516;9.944;2022-12-18T10:44:36;49.93;;;15.73;;
21087;SDS011;10702;51.516;9.944;2022-12-18T10:47:04;30.43;;;11.70;;
21087;SDS011;10702;51.516;9.944;2022-12-18T10:49:40;27.17;;;12.20;;
21087;SDS011;10702;51.516;9.944;2022-12-18T10:52:14;33.47;;;13.33;;
21087;SDS011;10702;51.516;9.944;2022-12-18T10:54:45;45.03;;;15.03;;
21087;SDS011;10702;51.516;9.944;2022-12-18T10:57:14;38.13;;;14.10;;
21087;SDS011;10702;51.516;9.944;2022-12-18T10:59:49;44.53;;;15.63;;
21087;SDS011;10702;51.516;9.944;2022-12-18T11:02:24;42.27;;;14.57;;
21087;SDS011;10702;51.516;9.944;2022-12-18T11:04:54;32.07;;;13.07;;
21087;SDS011;10702;51.516;9.944;2022-12-18T11:07:22;29.33;;;12.23;;
21087;SDS011;10702;51.516;9.944;2022-12-18T11:09:59;32.53;;;13.43;;
21087;SDS011;10702;51.516;9.944;2022-12-18T11:12:27;34.33;;;13.50;;
21087;SDS011;10702;51.516;9.944;2022-12-18T11:14:55;29.63;;;13.67;;
21087;SDS011;10702;51.516;9.944;2022-12-18T11:17:25;36.90;;;14.00;;
21087;SDS011;10702;51.516;9.944;2022-12-18T11:19:56;27.00;;;11.40;;
21087;SDS011;10702;51.516;9.944;2022-12-18T11:22:24;27.73;;;11.43;;
21087;SDS011;10702;51.516;9.944;2022-12-18T11:24:55;31.60;;;11.63;;
21087;SDS011;10702;51.516;9.944;2022-12-18T11:27:47;26.20;;;10.83;;
21087;SDS011;10702;51.516;9.944;2022-12-18T11:30:20;21.63;;;10.00;;
21087;SDS011;10702;51.516;9.944;2022-12-18T11:32:48;18.90;;;9.10;;
21087;SDS011;10702;51.516;9.944;2022-12-18T11:35:19;15.80;;;8.77;;
21087;SDS011;10702;51.516;9.944;2022-12-18T11:37:48;14.27;;;7.57;;
21087;SDS011;10702;51.516;9.944;2022-12-18T11:40:17;14.03;;;7.03;;
21087;SDS011;10702;51.516;9.944;2022-12-18T11:42:48;11.60;;;6.77;;
21087;SDS011;10702;51.516;9.944;2022-12-18T11:45:23;15.80;;;6.77;;
21087;SDS011;10702;51.516;9.944;2022-12-18T11:47:54;13.73;;;6.60;;
21087;SDS011;10702;51.516;9.944;2022-12-18T11:50:28;15.60;;;7.70;;
21087;SDS011;10702;51.516;9.944;2022-12-18T11:52:56;12.80;;;7.10;;
21087;SDS011;10702;51.516;9.944;2022-12-18T11:55:33;12.17;;;6.80;;
21087;SDS011;10702;51.516;9.944;2022-12-18T11:58:07;13.80;;;7.23;;
21087;SDS011;10702;51.516;9.944;2022-12-18T12:00:39;14.27;;;7.27;;
21087;SDS011;10702;51.516;9.944;2022-12-18T12:03:17;15.63;;;8.07;;
21087;SDS011;10702;51.516;9.944;2022-12-18T12:05:51;17.07;;;9.00;;
21087;SDS011;10702;51.516;9.944;2022-12-18T12:08:26;13.87;;;7.57;;
21087;SDS011;10702;51.516;9.944;2022-12-18T12:10:57;15.93;;;7.47;;
21087;SDS011;10702;51.516;9.944;2022-12-18T12:13:33;14.40;;;7.47;;
21087;SDS011;10702;51.516;9.944;2022-12-18T12:16:09;15.23;;;8.47;;
21087;SDS011;10702;51.516;9.944;2022-12-18T12:18:42;13.50;;;6.83;;
21087;SDS011;10702;51.516;9.944;2022-12-18T12:21:14;8.97;;;5.63;;
21087;SDS011;10702;51.516;9.944;2022-12-18T12:23:47;15.03;;;6.10;;
21087;SDS011;10702;51.516;9.944;2022-12-18T12:26:20;11.47;;;5.97;;
21087;SDS011;10702;51.516;9.944;2022-12-18T12:28:52;11.87;;;5.90;;
21087;SDS011;10702;51.516;9.944;2022-12-18T12:31:24;11.53;;;5.80;;
21087;SDS011;10702;51.516;9.944;2022-12-18T12:33:54;10.93;;;5.97;;
21087;SDS011;10702;51.516;9.944;2022-12-18T12:36:26;10.33;;;5.50;;
21087;SDS011;10702;51.516;9.944;2022-12-18T12:38:57;10.47;;;5.53;;
21087;SDS011;10702;51.516;9.944;2022-12-18T12:41:26;10.37;;;5.50;;
21087;SDS011;10702;51.516;9.944;2022-12-18T12:44:13;10.40;;;5.13;;
21087;SDS011;10702;51.516;9.944;2022-12-18T12:46:42;9.30;;;4.83;;
21087;SDS011;10702;51.516;9.944;2022-12-18T12:49:12;9.07;;;4.87;;
21087;SDS011;10702;51.516;9.944;2022-12-18T12:51:43;9.00;;;4.83;;
21087;SDS011;10702;51.516;9.944;2022-12-18T12:54:12;9.67;;;4.57;;
21087;SDS011;10702;51.516;9.944;2022-12-18T12:56:44;8.57;;;4.80;;
21087;SDS011;10702;51.516;9.944;2022-12-18T12:59:15;7.70;;;4.47;;
21087;SDS011;10702;51.516;9.944;2022-12-18T13:01:49;9.07;;;4.87;;
21087;SDS011;10702;51.516;9.944;2022-12-18T13:04:21;8.87;;;4.90;;
21087;SDS011;10702;51.516;9.944;2022-12-18T13:06:53;9.33;;;4.87;;
21087;SDS011;10702;51.516;9.944;2022-12-18T13:09:29;11.03;;;5.23;;
21087;SDS011;10702;51.516;9.944;2022-12-18T13:12:01;10.70;;;4.93;;
21087;SDS011;10702;51.516;9.944;2022-12-18T13:14:47;9.83;;;5.20;;
21087;SDS011;10702;51.516;9.944;2022-12-18T13:17:24;9.53;;;5.03;;
21087;SDS011;10702;51.516;9.944;2022-12-18T13:20:05;9.40;;;5.30;;
21087;SDS011;10702;51.516;9.944;2022-12-18T13:22:35;8.83;;;5.13;;
21087;SDS011;10702;51.516;9.944;2022-12-18T13:28:00;9.53;;;4.90;;
21087;SDS011;10702;51.516;9.944;2022-12-18T13:36:37;10.30;;;4.70;;
21087;SDS011;10702;51.516;9.944;2022-12-18T13:39:25;8.33;;;4.63;;
21087;SDS011;10702;51.516;9.944;2022-12-18T13:47:53;9.87;;;4.87;;
21087;SDS011;10702;51.516;9.944;2022-12-18T13:50:22;8.67;;;4.70;;
21087;SDS011;10702;51.516;9.944;2022-12-18T13:52:50;9.50;;;4.83;;
21087;SDS011;10702;51.516;9.944;2022-12-18T13:55:18;9.77;;;4.87;;
21087;SDS011;10702;51.516;9.944;2022-12-18T13:57:46;9.37;;;4.60;;
21087;SDS011;10702;51.516;9.944;2022-12-18T14:00:23;8.90;;;4.93;;
21087;SDS011;10702;51.516;9.944;2022-12-18T14:02:51;7.60;;;4.50;;
21087;SDS011;10702;51.516;9.944;2022-12-18T14:05:24;9.10;;;4.53;;
21087;SDS011;10702;51.516;9.944;2022-12-18T14:07:52;7.90;;;4.20;;
21087;SDS011;10702;51.516;9.944;2022-12-18T14:10:20;8.67;;;4.43;;
21087;SDS011;10702;51.516;9.944;2022-12-18T14:13:08;10.03;;;4.37;;
21087;SDS011;10702;51.516;9.944;2022-12-18T14:15:39;9.37;;;4.97;;
21087;SDS011;10702;51.516;9.944;2022-12-18T14:18:13;8.07;;;4.87;;
21087;SDS011;10702;51.516;9.944;2022-12-18T14:20:44;7.50;;;4.50;;
21087;SDS011;10702;51.516;9.944;2022-12-18T14:23:25;8.70;;;4.93;;
21087;SDS011;10702;51.516;9.944;2022-12-18T14:25:53;9.30;;;4.90;;
21087;SDS011;10702;51.516;9.944;2022-12-18T14:28:23;9.13;;;4.80;;
21087;SDS011;10702;51.516;9.944;2022-12-18T14:30:52;7.17;;;4.43;;
21087;SDS011;10702;51.516;9.944;2022-12-18T14:33:21;8.20;;;4.53;;
21087;SDS011;10702;51.516;9.944;2022-12-18T14:35:54;11.50;;;4.67;;
21087;SDS011;10702;51.516;9.944;2022-12-18T14:38:24;11.13;;;5.20;;
21087;SDS011;10702;51.516;9.944;2022-12-18T14:40:52;8.03;;;4.57;;
21087;SDS011;10702;51.516;9.944;2022-12-18T14:43:20;8.03;;;4.40;;
21087;SDS011;10702;51.516;9.944;2022-12-18T14:45:47;9.63;;;4.70;;
21087;SDS011;10702;51.516;9.944;2022-12-18T14:48:16;6.90;;;4.20;;
21087;SDS011;10702;51.516;9.944;2022-12-18T14:50:57;9.93;;;5.37;;
21087;SDS011;10702;51.516;9.944;2022-12-18T14:53:35;10.53;;;4.87;;
21087;SDS011;10702;51.516;9.944;2022-12-18T14:56:10;9.60;;;4.70;;
21087;SDS011;10702;51.516;9.944;2022-12-18T14:58:43;10.03;;;5.03;;
21087;SDS011;10702;51.516;9.944;2022-12-18T15:01:17;10.97;;;5.07;;
21087;SDS011;10702;51.516;9.944;2022-12-18T15:03:44;10.80;;;5.63;;
21087;SDS011;10702;51.516;9.944;2022-12-18T15:06:17;11.00;;;5.73;;